Time;durP1;ratioP1;P1;durP2;ratioP2;P2;SDS_P1;SDS_P2;PMS_P1;PMS_P2;Temp;Humidity;BMP_temperature;BMP_pressure;BME280_temperature;BME280_humidity;BME280_pressure;Samples;Min_cycle;Max_cycle;Signal;HPM_P1;HPM_P2
2021/06/18 00:01:38;;;;;;;4.50;3.17;;;24.30;96.70;;;;;;5034690;28;20095;-75
2021/06/18 00:04:06;;;;;;;6.78;3.17;;;24.20;96.70;;;;;;5019073;28;20071;-75
2021/06/18 00:06:34;;;;;;;8.02;2.78;;;24.20;96.70;;;;;;5041566;28;20043;-75
2021/06/18 00:09:02;;;;;;;5.43;2.80;;;24.20;96.70;;;;;;5038783;28;20041;-75
2021/06/18 00:11:30;;;;;;;6.65;3.47;;;24.20;96.70;;;;;;5034584;28;20083;-74
2021/06/18 00:13:58;;;;;;;4.43;3.10;;;24.40;96.70;;;;;;5037793;28;20043;-74
2021/06/18 00:16:28;;;;;;;4.07;2.95;;;24.30;96.70;;;;;;5036527;28;20064;-75
2021/06/18 00:18:56;;;;;;;4.97;3.10;;;24.20;96.70;;;;;;5034964;28;20049;-75
2021/06/18 00:21:24;;;;;;;5.28;3.33;;;24.20;96.70;;;;;;5035412;28;20080;-74
2021/06/18 00:23:53;;;;;;;4.35;2.75;;;24.10;96.70;;;;;;5034641;28;20458;-75
2021/06/18 00:26:21;;;;;;;4.07;3.53;;;24.10;96.70;;;;;;5036006;28;20029;-75
2021/06/18 00:28:50;;;;;;;7.55;3.38;;;24.10;96.70;;;;;;5040924;28;20051;-75
2021/06/18 00:31:18;;;;;;;3.75;3.05;;;24.10;96.70;;;;;;5034384;28;20037;-75
2021/06/18 00:33:49;;;;;;;7.45;3.03;;;24.10;96.70;;;;;;5036061;28;20564;-72
2021/06/18 00:36:17;;;;;;;4.72;3.47;;;24.00;96.70;;;;;;5035943;28;20123;-72
2021/06/18 00:38:45;;;;;;;3.78;3.20;;;24.00;96.70;;;;;;5040337;28;20041;-72
2021/06/18 00:41:13;;;;;;;3.83;2.95;;;24.10;96.70;;;;;;5035995;28;20037;-73
2021/06/18 00:43:41;;;;;;;5.40;3.42;;;23.80;96.70;;;;;;5034544;28;20041;-72
2021/06/18 00:46:10;;;;;;;4.13;3.28;;;23.60;96.70;;;;;;5034001;28;20522;-72
2021/06/18 00:48:38;;;;;;;6.22;3.30;;;23.70;96.70;;;;;;5053207;28;20049;-72
2021/06/18 00:51:08;;;;;;;6.53;4.00;;;23.80;96.70;;;;;;5038312;28;20040;-72
2021/06/18 00:53:38;;;;;;;4.75;3.05;;;23.90;96.70;;;;;;5038305;28;20060;-72
2021/06/18 00:56:06;;;;;;;6.80;3.40;;;23.90;96.70;;;;;;5029411;28;20048;-72
2021/06/18 00:58:34;;;;;;;6.85;3.55;;;23.90;96.70;;;;;;5044706;28;20115;-72
2021/06/18 01:01:03;;;;;;;5.38;2.88;;;23.70;96.70;;;;;;5037885;28;20055;-72
2021/06/18 01:03:31;;;;;;;5.20;3.20;;;23.70;96.70;;;;;;5038231;28;20034;-72
2021/06/18 01:05:59;;;;;;;3.53;2.65;;;23.60;96.70;;;;;;5025548;28;20045;-73
2021/06/18 01:08:39;;;;;;;5.28;2.78;;;23.60;96.70;;;;;;5041084;28;20060;-72
2021/06/18 01:11:12;;;;;;;4.05;2.72;;;23.60;96.70;;;;;;5021768;28;20507;-72
2021/06/18 01:13:51;;;;;;;5.65;3.30;;;23.50;96.70;;;;;;5041385;28;20071;-72
2021/06/18 01:16:26;;;;;;;4.22;2.78;;;23.40;96.70;;;;;;5038337;28;20044;-72
2021/06/18 01:18:59;;;;;;;5.00;2.92;;;23.40;96.70;;;;;;5038723;28;20077;-72
2021/06/18 01:21:31;;;;;;;6.55;3.30;;;23.40;96.70;;;;;;5041993;28;20041;-72
2021/06/18 01:24:27;;;;;;;4.18;3.30;;;23.40;96.70;;;;;;5041726;28;20052;-72
2021/06/18 01:27:27;;;;;;;4.63;3.38;;;23.40;96.70;;;;;;5041389;28;20164;-72
2021/06/18 01:30:01;;;;;;;4.18;2.80;;;23.30;96.70;;;;;;5041440;28;20074;-72
2021/06/18 01:32:34;;;;;;;5.60;3.58;;;23.20;96.70;;;;;;5040019;28;20629;-73
2021/06/18 01:35:03;;;;;;;4.43;3.38;;;23.20;96.70;;;;;;5041103;28;20037;-72
2021/06/18 01:37:32;;;;;;;4.30;2.78;;;23.20;96.70;;;;;;5042816;28;20037;-72
2021/06/18 01:40:09;;;;;;;4.93;3.20;;;23.20;96.70;;;;;;5040371;28;20503;-72
2021/06/18 01:42:41;;;;;;;5.75;3.15;;;23.20;96.70;;;;;;5025447;28;20040;-72
2021/06/18 01:45:13;;;;;;;7.85;4.43;;;23.10;96.70;;;;;;5038234;28;20046;-72
2021/06/18 01:47:43;;;;;;;4.88;3.38;;;23.20;96.70;;;;;;5037837;28;20438;-72
2021/06/18 01:50:14;;;;;;;4.20;3.10;;;23.00;96.70;;;;;;5039489;28;20049;-72
2021/06/18 01:52:48;;;;;;;5.72;3.55;;;22.80;96.70;;;;;;5040295;28;20038;-72
2021/06/18 01:55:18;;;;;;;5.90;3.75;;;23.00;96.70;;;;;;5043305;28;20045;-72
2021/06/18 01:57:48;;;;;;;5.30;3.30;;;23.00;96.70;;;;;;5036101;28;20041;-72
2021/06/18 02:00:19;;;;;;;5.25;3.22;;;22.80;96.70;;;;;;5041275;28;20041;-73
2021/06/18 02:02:48;;;;;;;5.35;3.10;;;22.80;96.70;;;;;;5037658;28;20049;-72
2021/06/18 02:05:17;;;;;;;4.70;3.38;;;22.80;96.70;;;;;;5039095;28;20041;-73
2021/06/18 02:07:47;;;;;;;4.18;2.80;;;22.80;96.70;;;;;;5040466;28;20518;-72
2021/06/18 02:10:16;;;;;;;4.85;3.00;;;22.90;96.70;;;;;;5039658;28;20518;-73
2021/06/18 02:12:47;;;;;;;5.07;3.22;;;22.80;96.70;;;;;;5040172;28;20044;-75
2021/06/18 02:15:22;;;;;;;4.15;3.60;;;22.80;96.70;;;;;;5043923;28;20068;-74
2021/06/18 02:17:51;;;;;;;4.30;3.08;;;22.80;96.70;;;;;;5040886;28;20037;-74
2021/06/18 02:20:21;;;;;;;4.47;3.10;;;22.70;96.70;;;;;;5041114;28;20039;-74
2021/06/18 02:22:52;;;;;;;4.93;3.53;;;22.60;96.70;;;;;;5039939;28;20041;-74
2021/06/18 02:25:20;;;;;;;5.18;3.10;;;22.60;96.70;;;;;;5039914;28;20500;-74
2021/06/18 02:27:49;;;;;;;3.85;2.90;;;22.50;96.70;;;;;;5038083;28;20554;-75
2021/06/18 02:30:24;;;;;;;3.28;2.78;;;22.50;96.70;;;;;;5037118;28;20056;-74
2021/06/18 02:32:52;;;;;;;3.88;2.85;;;22.50;96.70;;;;;;5039437;28;20075;-74
2021/06/18 02:35:21;;;;;;;5.00;3.20;;;22.50;96.70;;;;;;5040566;28;20065;-74
2021/06/18 02:37:49;;;;;;;7.88;3.30;;;22.40;96.70;;;;;;5041021;28;20092;-74
2021/06/18 02:40:17;;;;;;;3.53;2.83;;;22.50;96.70;;;;;;5040999;28;20105;-74
2021/06/18 02:42:46;;;;;;;5.07;3.47;;;22.60;96.70;;;;;;5041260;28;20047;-74
2021/06/18 02:45:15;;;;;;;3.40;3.10;;;22.70;96.70;;;;;;5038949;28;20370;-74
2021/06/18 02:47:53;;;;;;;4.93;3.40;;;22.50;96.70;;;;;;5041076;28;20124;-74
2021/06/18 02:50:28;;;;;;;3.47;2.70;;;22.50;96.70;;;;;;5040387;28;20051;-74
2021/06/18 02:52:59;;;;;;;3.45;2.92;;;22.60;96.70;;;;;;5037643;28;20044;-74
2021/06/18 02:55:35;;;;;;;3.92;3.28;;;22.60;96.70;;;;;;5036939;28;20513;-74
2021/06/18 02:58:09;;;;;;;4.07;3.38;;;22.70;96.70;;;;;;5036834;28;20049;-74
2021/06/18 03:00:40;;;;;;;5.05;3.55;;;22.70;96.70;;;;;;5037663;28;20074;-74
2021/06/18 03:03:14;;;;;;;5.53;3.63;;;22.40;96.70;;;;;;5040023;28;20040;-74
2021/06/18 03:05:46;;;;;;;4.13;3.50;;;22.40;96.70;;;;;;5057790;28;20052;-74
2021/06/18 03:08:16;;;;;;;4.22;3.65;;;22.50;96.70;;;;;;5039083;28;20045;-74
2021/06/18 03:10:48;;;;;;;5.85;4.50;;;22.50;96.70;;;;;;5041235;28;20048;-74
2021/06/18 03:13:19;;;;;;;3.13;2.83;;;22.40;96.70;;;;;;5039182;28;20079;-74
2021/06/18 03:15:48;;;;;;;4.32;3.70;;;22.20;96.70;;;;;;5040617;28;20048;-74
2021/06/18 03:18:22;;;;;;;9.80;3.65;;;22.30;96.70;;;;;;5038262;28;20060;-74
2021/06/18 03:20:53;;;;;;;6.60;3.90;;;22.40;96.70;;;;;;5040071;28;20450;-74
2021/06/18 03:23:23;;;;;;;6.50;4.07;;;22.40;96.70;;;;;;5038527;28;20038;-74
2021/06/18 03:25:53;;;;;;;4.80;3.30;;;22.40;96.70;;;;;;5038865;28;20041;-74
2021/06/18 03:28:26;;;;;;;6.60;3.83;;;22.50;96.70;;;;;;5038168;28;20045;-74
2021/06/18 03:30:56;;;;;;;5.13;3.65;;;22.50;96.70;;;;;;5039909;28;20045;-74
2021/06/18 03:33:26;;;;;;;5.75;3.83;;;22.40;96.70;;;;;;5052963;28;20042;-74
2021/06/18 03:35:56;;;;;;;7.30;4.00;;;22.40;96.70;;;;;;5024412;28;20049;-74
2021/06/18 03:38:25;;;;;;;5.20;4.05;;;22.30;96.70;;;;;;5036269;28;20045;-74
2021/06/18 03:40:54;;;;;;;5.78;4.18;;;22.20;96.70;;;;;;5037565;28;20052;-74
2021/06/18 03:43:23;;;;;;;8.13;4.03;;;22.30;96.70;;;;;;5040207;28;20044;-74
2021/06/18 03:45:57;;;;;;;5.15;4.07;;;22.40;96.70;;;;;;5037553;28;20045;-75
2021/06/18 03:48:28;;;;;;;5.68;3.30;;;22.50;96.70;;;;;;5038246;28;20041;-74
2021/06/18 03:50:59;;;;;;;6.90;3.67;;;22.40;96.70;;;;;;5039278;28;20045;-74
2021/06/18 03:53:27;;;;;;;7.45;4.30;;;22.40;96.70;;;;;;5039200;28;20048;-74
2021/06/18 03:55:56;;;;;;;7.30;4.03;;;22.40;96.70;;;;;;5039338;28;20102;-74
2021/06/18 03:58:26;;;;;;;8.45;4.00;;;22.40;96.70;;;;;;5038592;28;20136;-74
2021/06/18 04:00:57;;;;;;;9.10;5.13;;;22.50;96.70;;;;;;5037504;28;20709;-74
2021/06/18 04:03:29;;;;;;;9.43;4.35;;;22.50;96.70;;;;;;5039042;28;20044;-74
2021/06/18 04:06:00;;;;;;;5.03;3.92;;;22.40;96.70;;;;;;5037501;28;20041;-74
2021/06/18 04:08:29;;;;;;;6.95;4.40;;;22.40;96.70;;;;;;5040862;28;20065;-74
2021/06/18 04:10:58;;;;;;;8.18;4.40;;;22.40;96.70;;;;;;5037204;28;20048;-74
2021/06/18 04:13:27;;;;;;;5.88;3.88;;;22.30;96.70;;;;;;5037056;28;20048;-74
2021/06/18 04:15:56;;;;;;;5.38;4.30;;;22.30;96.70;;;;;;5036874;28;20046;-74
2021/06/18 04:18:26;;;;;;;6.55;4.00;;;22.30;96.70;;;;;;5022945;28;20032;-74
2021/06/18 04:20:57;;;;;;;9.25;4.13;;;22.20;96.70;;;;;;5035162;28;20045;-74
2021/06/18 04:23:28;;;;;;;6.70;3.47;;;22.20;96.70;;;;;;5041113;28;20064;-74
2021/06/18 04:25:58;;;;;;;6.93;3.95;;;22.10;96.70;;;;;;5035418;28;20519;-74
2021/06/18 04:28:28;;;;;;;9.48;3.83;;;22.10;96.70;;;;;;5035231;28;20036;-74
2021/06/18 04:30:57;;;;;;;6.13;3.50;;;22.20;96.70;;;;;;5037038;28;20475;-74
2021/06/18 04:33:25;;;;;;;4.28;3.45;;;22.30;96.70;;;;;;5038524;28;20045;-74
2021/06/18 04:35:56;;;;;;;8.45;3.60;;;22.40;96.70;;;;;;5036819;28;20120;-74
2021/06/18 04:38:24;;;;;;;9.00;6.47;;;22.40;96.70;;;;;;5038538;28;20441;-74
2021/06/18 04:40:53;;;;;;;16.30;7.38;;;22.50;96.70;;;;;;5036026;28;20045;-74
2021/06/18 04:43:22;;;;;;;14.55;7.30;;;22.50;96.70;;;;;;5039358;28;20573;-74
2021/06/18 04:45:50;;;;;;;10.38;7.05;;;22.40;96.70;;;;;;5038275;28;20033;-74
2021/06/18 04:48:20;;;;;;;13.98;7.57;;;22.20;96.70;;;;;;5024072;28;20048;-74
2021/06/18 04:50:49;;;;;;;8.93;6.68;;;22.10;96.70;;;;;;5039541;28;20049;-74
2021/06/18 04:53:19;;;;;;;12.38;7.32;;;22.30;96.70;;;;;;5040124;28;20052;-74
2021/06/18 04:55:49;;;;;;;8.35;5.60;;;22.40;96.70;;;;;;5037610;28;20044;-74
2021/06/18 04:58:19;;;;;;;9.30;5.03;;;22.50;96.70;;;;;;5034201;28;20040;-74
2021/06/18 05:00:47;;;;;;;8.25;4.90;;;22.70;96.70;;;;;;5053778;28;20052;-74
2021/06/18 05:03:16;;;;;;;7.53;4.93;;;22.70;96.70;;;;;;5038435;28;20053;-74
2021/06/18 05:05:45;;;;;;;8.10;4.82;;;22.80;96.70;;;;;;5036205;28;20052;-74
2021/06/18 05:08:13;;;;;;;9.23;4.53;;;22.80;96.70;;;;;;5018709;28;20045;-74
2021/06/18 05:10:43;;;;;;;6.10;4.45;;;22.80;96.70;;;;;;5035841;28;20049;-74
2021/06/18 05:13:11;;;;;;;6.50;4.10;;;22.80;96.70;;;;;;5018394;28;20034;-74
2021/06/18 05:15:40;;;;;;;5.60;4.43;;;22.80;96.70;;;;;;5038818;28;20052;-74
2021/06/18 05:18:08;;;;;;;7.65;4.30;;;22.80;96.70;;;;;;5034700;28;20080;-74
2021/06/18 05:20:37;;;;;;;5.38;3.90;;;22.90;96.70;;;;;;5037747;28;20578;-75
2021/06/18 05:23:05;;;;;;;8.88;4.80;;;22.80;96.70;;;;;;5037127;28;20045;-74
2021/06/18 05:25:34;;;;;;;8.38;4.80;;;22.60;96.70;;;;;;5038100;28;20438;-74
2021/06/18 05:28:04;;;;;;;7.00;4.85;;;22.50;96.70;;;;;;5034946;28;20455;-74
2021/06/18 05:30:33;;;;;;;11.10;5.72;;;22.60;96.70;;;;;;5038247;28;20558;-73
2021/06/18 05:33:02;;;;;;;7.32;4.57;;;22.60;96.70;;;;;;5035838;28;20511;-74
2021/06/18 05:35:30;;;;;;;9.43;5.25;;;22.80;96.70;;;;;;5036205;28;20139;-74
2021/06/18 05:37:59;;;;;;;9.40;4.40;;;22.70;96.70;;;;;;5036845;28;20116;-74
2021/06/18 05:40:27;;;;;;;8.25;4.03;;;22.70;96.70;;;;;;5037084;28;20029;-74
2021/06/18 05:42:56;;;;;;;8.45;4.43;;;22.60;96.70;;;;;;5036348;28;20067;-74
2021/06/18 05:45:26;;;;;;;7.93;5.10;;;22.70;96.70;;;;;;5041185;28;20044;-74
2021/06/18 05:47:54;;;;;;;8.45;4.85;;;22.70;96.70;;;;;;5039262;28;20065;-74
2021/06/18 05:50:23;;;;;;;5.97;4.25;;;22.70;96.70;;;;;;5036188;28;20083;-74
2021/06/18 05:52:51;;;;;;;7.68;4.70;;;22.70;96.70;;;;;;5044086;28;20552;-74
2021/06/18 05:55:20;;;;;;;6.70;3.90;;;22.60;96.70;;;;;;5039733;28;20407;-75
2021/06/18 05:57:49;;;;;;;7.28;4.28;;;22.60;96.70;;;;;;5042099;28;20048;-77
2021/06/18 06:00:19;;;;;;;4.78;3.35;;;22.60;96.70;;;;;;5041303;28;20045;-76
2021/06/18 06:03:10;;;;;;;6.30;4.55;;;22.80;96.70;;;;;;5044757;28;20052;-76
2021/06/18 06:05:39;;;;;;;8.88;4.45;;;23.00;96.70;;;;;;5041275;28;20033;-75
2021/06/18 06:08:10;;;;;;;8.65;4.70;;;23.00;96.70;;;;;;5024766;28;20065;-75
2021/06/18 06:10:48;;;;;;;9.63;5.00;;;23.10;96.70;;;;;;5041945;28;20060;-75
2021/06/18 06:13:18;;;;;;;5.53;4.90;;;23.30;96.70;;;;;;5042108;28;20412;-75
2021/06/18 06:15:47;;;;;;;7.20;4.53;;;23.30;96.70;;;;;;5037908;28;20049;-75
2021/06/18 06:18:18;;;;;;;7.68;4.40;;;23.50;96.70;;;;;;5039335;28;20507;-75
2021/06/18 06:20:48;;;;;;;9.20;4.78;;;23.60;96.70;;;;;;5035276;28;20487;-75
2021/06/18 06:23:17;;;;;;;6.22;4.40;;;23.60;96.70;;;;;;5051444;28;20052;-75
2021/06/18 06:25:45;;;;;;;7.40;4.22;;;23.60;96.70;;;;;;5036627;28;20047;-74
2021/06/18 06:28:14;;;;;;;12.23;4.90;;;23.50;96.70;;;;;;5039932;28;20056;-74
2021/06/18 06:30:42;;;;;;;7.43;4.85;;;23.60;96.70;;;;;;5037522;28;20208;-75
2021/06/18 06:33:11;;;;;;;6.40;4.90;;;23.60;96.70;;;;;;5040565;28;20037;-75
2021/06/18 06:35:41;;;;;;;6.60;4.65;;;23.60;96.70;;;;;;5040119;28;20068;-74
2021/06/18 06:38:10;;;;;;;7.97;4.40;;;23.70;96.70;;;;;;5037344;28;20509;-74
2021/06/18 06:40:38;;;;;;;6.75;3.85;;;23.80;96.70;;;;;;5040290;28;20044;-75
2021/06/18 06:43:07;;;;;;;4.88;3.75;;;23.90;96.70;;;;;;5036400;28;20123;-75
2021/06/18 06:45:35;;;;;;;9.50;4.15;;;24.00;96.70;;;;;;5026127;28;20063;-74
2021/06/18 06:48:04;;;;;;;6.55;4.05;;;24.10;96.70;;;;;;5036252;28;20156;-75
2021/06/18 06:50:33;;;;;;;8.35;4.30;;;24.10;96.70;;;;;;5038232;28;20045;-75
2021/06/18 06:53:03;;;;;;;5.53;4.13;;;24.10;96.70;;;;;;5033070;28;20049;-74
2021/06/18 06:55:32;;;;;;;10.63;5.10;;;24.10;96.70;;;;;;5026938;28;20060;-75
2021/06/18 06:58:01;;;;;;;9.13;4.50;;;24.20;96.70;;;;;;5040919;28;20033;-74
2021/06/18 07:00:29;;;;;;;9.50;4.38;;;24.30;96.70;;;;;;5039930;28;20049;-75
2021/06/18 07:02:58;;;;;;;7.97;5.25;;;24.40;96.70;;;;;;5040861;28;20044;-75
2021/06/18 07:05:27;;;;;;;7.80;4.22;;;24.50;96.70;;;;;;5041040;28;20098;-75
2021/06/18 07:07:55;;;;;;;8.05;4.80;;;24.60;96.70;;;;;;5037670;28;20049;-75
2021/06/18 07:10:25;;;;;;;10.75;5.57;;;24.60;96.70;;;;;;5041896;28;20033;-75
2021/06/18 07:12:54;;;;;;;10.82;6.20;;;24.70;96.70;;;;;;5034845;28;20045;-74
2021/06/18 07:15:23;;;;;;;9.45;6.03;;;24.60;96.70;;;;;;5039386;28;20025;-74
2021/06/18 07:17:51;;;;;;;8.63;5.28;;;24.60;96.70;;;;;;5041030;28;20045;-75
2021/06/18 07:20:19;;;;;;;8.40;5.38;;;24.60;96.70;;;;;;5019939;28;20063;-75
2021/06/18 07:22:48;;;;;;;8.57;5.22;;;24.70;96.70;;;;;;5039548;28;20037;-74
2021/06/18 07:25:16;;;;;;;8.32;5.20;;;24.80;96.70;;;;;;5039148;28;20040;-74
2021/06/18 07:27:46;;;;;;;11.35;5.70;;;24.90;96.70;;;;;;5031697;28;20037;-74
2021/06/18 07:30:15;;;;;;;5.78;4.65;;;24.90;96.70;;;;;;5041338;28;20040;-75
2021/06/18 07:32:44;;;;;;;5.88;4.43;;;25.00;96.70;;;;;;5038058;28;20072;-74
2021/06/18 07:35:12;;;;;;;6.22;4.25;;;25.10;96.70;;;;;;5026723;28;20049;-74
2021/06/18 07:37:40;;;;;;;9.10;4.70;;;25.20;96.70;;;;;;5020810;28;20041;-74
2021/06/18 07:40:11;;;;;;;7.05;5.38;;;25.30;96.70;;;;;;5040693;28;20486;-75
2021/06/18 07:42:40;;;;;;;7.60;4.72;;;25.40;96.70;;;;;;5039067;28;20095;-74
2021/06/18 07:45:11;;;;;;;11.43;4.88;;;25.50;96.70;;;;;;5039485;28;20045;-75
2021/06/18 07:47:40;;;;;;;7.72;5.00;;;25.60;96.70;;;;;;5041123;28;20056;-74
2021/06/18 07:50:10;;;;;;;8.10;4.68;;;25.70;96.70;;;;;;5040127;28;20132;-75
2021/06/18 07:52:39;;;;;;;6.82;4.40;;;25.80;96.70;;;;;;5040339;28;20171;-75
2021/06/18 07:55:11;;;;;;;7.00;4.90;;;25.80;96.70;;;;;;5036989;28;20132;-75
2021/06/18 07:57:40;;;;;;;9.05;5.97;;;25.90;96.70;;;;;;5039132;28;20037;-75
2021/06/18 08:00:11;;;;;;;8.75;5.50;;;25.80;96.70;;;;;;5037424;28;20041;-75
2021/06/18 08:02:41;;;;;;;9.35;5.20;;;25.90;96.70;;;;;;5039773;28;20039;-75
2021/06/18 08:05:11;;;;;;;6.78;4.85;;;25.90;96.70;;;;;;5037154;28;20244;-74
2021/06/18 08:07:40;;;;;;;7.35;5.03;;;25.90;96.70;;;;;;5039237;28;20057;-74
2021/06/18 08:10:12;;;;;;;8.95;5.50;;;26.00;96.70;;;;;;5040258;28;20047;-74
2021/06/18 08:12:41;;;;;;;5.15;4.22;;;26.10;96.70;;;;;;5037547;28;20097;-75
2021/06/18 08:15:12;;;;;;;8.80;5.07;;;26.10;96.70;;;;;;5035394;28;20110;-74
2021/06/18 08:17:41;;;;;;;8.23;4.47;;;26.20;96.70;;;;;;5023114;28;20091;-74
2021/06/18 08:20:13;;;;;;;6.15;4.50;;;26.20;96.70;;;;;;5035865;28;20128;-75
2021/06/18 08:22:42;;;;;;;7.07;4.32;;;26.20;96.70;;;;;;5041238;28;20051;-75
2021/06/18 08:25:10;;;;;;;7.40;4.13;;;26.30;96.70;;;;;;5039872;28;20624;-75
2021/06/18 08:27:38;;;;;;;8.85;4.70;;;26.40;96.70;;;;;;5038004;28;20041;-75
2021/06/18 08:30:08;;;;;;;7.80;4.25;;;26.50;96.70;;;;;;5031489;28;20082;-75
2021/06/18 08:32:51;;;;;;;8.35;4.38;;;26.40;96.70;;;;;;5056910;28;20802;-75
2021/06/18 08:35:20;;;;;;;8.07;4.32;;;26.50;96.70;;;;;;5038895;28;20043;-76
2021/06/18 08:37:49;;;;;;;8.70;4.22;;;26.60;96.70;;;;;;5039186;28;20056;-75
2021/06/18 08:40:18;;;;;;;5.93;3.78;;;26.60;96.70;;;;;;5017876;28;20051;-75
2021/06/18 08:42:48;;;;;;;5.00;4.00;;;26.70;95.50;;;;;;5040668;28;20037;-75
2021/06/18 08:45:16;;;;;;;5.93;3.70;;;26.90;95.60;;;;;;5038714;28;20134;-75
2021/06/18 08:47:44;;;;;;;6.90;4.10;;;27.00;95.60;;;;;;5036521;28;20041;-75
2021/06/18 08:50:16;;;;;;;8.90;4.30;;;27.00;96.10;;;;;;5037186;28;20041;-74
2021/06/18 08:52:46;;;;;;;8.38;4.35;;;27.00;96.20;;;;;;5040646;28;20414;-75
2021/06/18 08:55:17;;;;;;;6.85;4.57;;;27.00;96.20;;;;;;5039232;28;20491;-74
2021/06/18 08:57:48;;;;;;;6.90;4.13;;;27.00;96.00;;;;;;5036833;28;20042;-75
2021/06/18 09:00:18;;;;;;;5.63;3.88;;;27.00;95.60;;;;;;5032644;28;20057;-75
2021/06/18 09:02:47;;;;;;;7.13;4.00;;;27.00;95.50;;;;;;5019819;28;20099;-75
2021/06/18 09:05:17;;;;;;;6.55;3.45;;;27.10;95.90;;;;;;5040440;28;20411;-74
2021/06/18 09:07:53;;;;;;;5.75;3.70;;;27.10;94.70;;;;;;5035110;28;20141;-75
2021/06/18 09:10:24;;;;;;;9.07;3.80;;;27.20;94.80;;;;;;5036944;28;20151;-74
2021/06/18 09:13:07;;;;;;;7.57;3.60;;;27.20;94.40;;;;;;5038110;28;20149;-75
2021/06/18 09:15:36;;;;;;;7.60;3.60;;;27.30;93.70;;;;;;5034879;28;20543;-75
2021/06/18 09:18:34;;;;;;;6.50;3.40;;;27.40;93.80;;;;;;5022836;28;20076;-76
2021/06/18 09:21:24;;;;;;;6.30;3.35;;;27.60;92.80;;;;;;5045292;28;20100;-75
2021/06/18 09:23:54;;;;;;;6.15;4.00;;;27.60;92.70;;;;;;5039559;28;20049;-75
2021/06/18 09:26:28;;;;;;;5.80;3.60;;;27.70;92.30;;;;;;5039425;28;20055;-75
2021/06/18 09:29:10;;;;;;;5.72;4.60;;;27.80;92.40;;;;;;5041296;28;20068;-75
2021/06/18 09:31:41;;;;;;;5.72;3.60;;;28.00;92.30;;;;;;5039545;28;20052;-75
2021/06/18 09:34:11;;;;;;;6.35;3.80;;;28.00;92.40;;;;;;5044387;28;20091;-75
2021/06/18 09:36:41;;;;;;;5.45;3.38;;;28.10;92.20;;;;;;5027567;28;20056;-75
2021/06/18 09:39:13;;;;;;;6.95;4.10;;;28.20;92.40;;;;;;5040294;28;20045;-75
2021/06/18 09:41:43;;;;;;;6.07;3.45;;;28.20;91.70;;;;;;5035507;28;20048;-75
2021/06/18 09:44:12;;;;;;;5.78;3.47;;;28.40;91.60;;;;;;5045406;28;20044;-75
2021/06/18 09:46:44;;;;;;;8.80;3.60;;;28.50;91.40;;;;;;5038966;28;20045;-76
2021/06/18 09:49:14;;;;;;;3.55;3.13;;;28.60;90.20;;;;;;5044667;28;20049;-75
2021/06/18 09:51:58;;;;;;;4.43;3.25;;;28.60;89.20;;;;;;5041289;28;20050;-75
2021/06/18 09:54:33;;;;;;;5.65;3.08;;;28.70;90.30;;;;;;5040493;28;20052;-75
2021/06/18 09:57:07;;;;;;;4.45;3.00;;;28.80;88.10;;;;;;5026790;28;20040;-75
2021/06/18 09:59:49;;;;;;;5.10;3.00;;;28.90;87.20;;;;;;5040378;28;20132;-75
2021/06/18 10:02:18;;;;;;;4.15;2.78;;;28.90;86.40;;;;;;5041352;28;20041;-75
2021/06/18 10:04:52;;;;;;;6.40;3.15;;;28.80;86.30;;;;;;5041387;28;20879;-75
2021/06/18 10:07:27;;;;;;;5.43;3.17;;;28.90;86.90;;;;;;5039458;28;20059;-75
2021/06/18 10:10:00;;;;;;;4.03;2.60;;;28.90;86.90;;;;;;5043222;28;20045;-74
2021/06/18 10:12:30;;;;;;;2.88;2.50;;;28.80;87.20;;;;;;5044034;28;20044;-74
2021/06/18 10:15:05;;;;;;;6.00;2.65;;;28.80;85.10;;;;;;5041098;28;20100;-75
2021/06/18 10:17:35;;;;;;;4.23;2.50;;;29.00;85.30;;;;;;5037959;28;20067;-74
2021/06/18 10:20:06;;;;;;;6.15;2.78;;;29.00;84.60;;;;;;5037150;28;20039;-75
2021/06/18 10:22:44;;;;;;;4.68;2.90;;;29.10;85.00;;;;;;5039101;28;20571;-75
2021/06/18 10:25:16;;;;;;;6.13;2.70;;;29.20;83.70;;;;;;5037424;28;20057;-75
2021/06/18 10:27:46;;;;;;;4.53;3.03;;;29.40;85.40;;;;;;5035888;28;20057;-75
2021/06/18 10:30:28;;;;;;;5.88;3.15;;;29.50;85.30;;;;;;5035245;28;20047;-75
2021/06/18 10:32:57;;;;;;;3.35;2.45;;;29.50;85.20;;;;;;5040843;28;20040;-75
2021/06/18 10:35:46;;;;;;;4.95;2.92;;;29.50;85.60;;;;;;5047903;28;20132;-75
2021/06/18 10:38:26;;;;;;;3.63;3.03;;;29.50;85.20;;;;;;5040553;28;21203;-75
2021/06/18 10:40:56;;;;;;;6.00;2.90;;;29.50;84.30;;;;;;5040747;28;20037;-75
2021/06/18 10:43:38;;;;;;;5.82;3.05;;;29.50;84.20;;;;;;5042481;28;20036;-76
2021/06/18 10:46:09;;;;;;;6.93;2.63;;;29.70;84.70;;;;;;5016293;28;20072;-76
2021/06/18 10:48:58;;;;;;;6.35;2.88;;;30.00;83.60;;;;;;5042536;28;20037;-75
2021/06/18 10:51:35;;;;;;;5.05;2.83;;;30.20;83.10;;;;;;5035329;28;20045;-75
2021/06/18 10:54:08;;;;;;;6.03;2.80;;;30.40;82.90;;;;;;5018038;28;20442;-75
2021/06/18 10:56:57;;;;;;;3.40;2.58;;;30.40;82.40;;;;;;5041529;28;20385;-75
2021/06/18 10:59:38;;;;;;;4.30;3.03;;;30.30;83.10;;;;;;5038539;28;20037;-75
2021/06/18 11:02:36;;;;;;;2.70;2.50;;;30.20;82.20;;;;;;5042566;28;20068;-75
2021/06/18 11:05:06;;;;;;;4.78;3.15;;;29.90;81.20;;;;;;5041767;28;20120;-75
2021/06/18 11:07:36;;;;;;;3.92;2.42;;;29.90;82.50;;;;;;5042010;28;20172;-74
2021/06/18 11:10:09;;;;;;;6.25;2.50;;;30.10;82.10;;;;;;5039813;28;20041;-75
2021/06/18 11:12:42;;;;;;;5.95;2.75;;;30.10;81.40;;;;;;5037737;28;20051;-75
2021/06/18 11:15:40;;;;;;;3.97;2.72;;;30.20;82.20;;;;;;5038188;28;20071;-75
2021/06/18 11:18:30;;;;;;;4.30;2.75;;;30.20;82.00;;;;;;5038748;28;20045;-75
2021/06/18 11:21:00;;;;;;;5.18;2.80;;;30.30;81.30;;;;;;5034063;28;20049;-75
2021/06/18 11:23:32;;;;;;;2.65;2.45;;;30.60;81.40;;;;;;5040927;28;20052;-74
2021/06/18 11:26:06;;;;;;;5.20;2.70;;;30.80;80.40;;;;;;5038668;28;20041;-74
2021/06/18 11:28:51;;;;;;;3.83;2.80;;;30.80;79.30;;;;;;5039005;28;20037;-75
2021/06/18 11:31:40;;;;;;;4.03;2.15;;;30.80;79.50;;;;;;5054383;28;20048;-75
2021/06/18 11:34:24;;;;;;;3.83;2.35;;;30.80;78.00;;;;;;5040981;28;20078;-75
2021/06/18 11:36:53;;;;;;;5.72;2.30;;;30.70;78.20;;;;;;5036763;28;20498;-75
2021/06/18 11:39:29;;;;;;;5.35;2.78;;;30.90;77.90;;;;;;5042223;28;20037;-75
2021/06/18 11:42:05;;;;;;;3.70;2.33;;;30.90;77.80;;;;;;5036901;28;20096;-75
2021/06/18 11:44:35;;;;;;;3.33;2.30;;;31.00;78.30;;;;;;5040807;28;20033;-75
2021/06/18 11:47:05;;;;;;;2.50;2.30;;;31.00;76.60;;;;;;5022706;28;20041;-76
2021/06/18 11:49:34;;;;;;;5.82;2.35;;;31.20;77.00;;;;;;5040686;28;20063;-76
2021/06/18 11:52:09;;;;;;;3.55;2.28;;;31.40;76.70;;;;;;5041640;28;20240;-75
2021/06/18 11:54:40;;;;;;;2.85;2.47;;;31.50;75.40;;;;;;5038256;28;20087;-75
2021/06/18 11:57:20;;;;;;;4.88;2.35;;;31.50;75.30;;;;;;5022032;28;20099;-75
2021/06/18 12:00:00;;;;;;;2.75;2.42;;;31.60;74.70;;;;;;5041600;28;20085;-75
2021/06/18 12:02:33;;;;;;;3.35;2.10;;;31.70;73.50;;;;;;5039658;28;20048;-75
2021/06/18 12:05:13;;;;;;;4.88;2.63;;;31.90;73.40;;;;;;5040008;28;20036;-75
2021/06/18 12:07:42;;;;;;;3.85;2.35;;;32.00;74.60;;;;;;5034999;28;20048;-75
2021/06/18 12:10:22;;;;;;;3.63;2.20;;;32.00;73.60;;;;;;5037993;28;20116;-75
2021/06/18 12:12:53;;;;;;;3.20;2.30;;;32.00;74.20;;;;;;5035732;28;20072;-75
2021/06/18 12:15:24;;;;;;;4.78;2.80;;;32.10;74.10;;;;;;5037518;28;20060;-75
2021/06/18 12:17:56;;;;;;;4.80;2.45;;;32.10;74.90;;;;;;5038419;28;20053;-75
2021/06/18 12:20:33;;;;;;;3.08;2.05;;;32.10;74.20;;;;;;5039317;28;20090;-74
2021/06/18 12:23:03;;;;;;;2.30;2.05;;;32.40;73.30;;;;;;5041820;28;20040;-74
2021/06/18 12:25:31;;;;;;;3.08;2.28;;;32.30;73.20;;;;;;5039003;28;20120;-74
2021/06/18 12:28:03;;;;;;;2.70;2.20;;;32.30;73.60;;;;;;5039264;28;20061;-75
2021/06/18 12:30:33;;;;;;;3.78;2.40;;;32.40;72.60;;;;;;5038878;28;20103;-74
2021/06/18 12:33:02;;;;;;;2.88;2.17;;;32.50;73.40;;;;;;5036313;28;20099;-74
2021/06/18 12:35:39;;;;;;;2.22;1.90;;;32.70;72.50;;;;;;5036499;28;20103;-75
2021/06/18 12:38:09;;;;;;;3.22;2.30;;;32.80;73.00;;;;;;5041231;28;20056;-74
2021/06/18 12:40:38;;;;;;;2.83;2.50;;;32.80;72.50;;;;;;5035916;28;20053;-74
2021/06/18 12:43:14;;;;;;;3.60;2.50;;;33.00;72.40;;;;;;5039615;28;20033;-74
2021/06/18 12:45:45;;;;;;;5.10;2.50;;;32.90;71.70;;;;;;5040582;28;20120;-74
2021/06/18 12:48:18;;;;;;;2.38;2.17;;;32.90;73.20;;;;;;5042370;28;20037;-75
2021/06/18 12:50:49;;;;;;;4.47;2.67;;;32.90;72.30;;;;;;5041603;28;20041;-74
2021/06/18 12:53:27;;;;;;;4.38;2.50;;;32.90;73.30;;;;;;5042673;28;20442;-74
2021/06/18 12:55:55;;;;;;;3.58;2.63;;;32.90;72.10;;;;;;5043884;28;20051;-74
2021/06/18 12:58:26;;;;;;;2.92;2.47;;;33.00;72.50;;;;;;5039288;28;20134;-74
2021/06/18 13:00:57;;;;;;;3.83;2.47;;;33.00;72.50;;;;;;5046790;28;20128;-74
2021/06/18 13:03:48;;;;;;;3.65;2.45;;;32.90;73.70;;;;;;5038533;28;20040;-75
2021/06/18 13:06:18;;;;;;;5.35;2.72;;;33.10;73.90;;;;;;5053866;28;20045;-74
2021/06/18 13:08:49;;;;;;;2.90;2.58;;;33.30;73.90;;;;;;5038984;28;20065;-74